Terminal Aerodrome Forecast
Issued by NWS

Home | Current Version | Previous Version | Text Only | Print | Product List | Glossary On
Versions: 1 2 3 4 5 6 7 8 9 10 11 12 13 14 15 16 17 18 19 20 21 22 23 24 25 26 27 28 29 30 31 32 33 34 35 36 37 38 39 40 41
000
FTUS45 KCYS 251740
TAFAIA
TAF
KAIA 251740Z 2518/2618 02014KT 3/4SM -SN BR OVC012
      TEMPO 2518/2522 1/4SM +SN FZFG VV003
     FM252200 02020KT 1/2SM SN FZFG VV005
     FM260300 01013KT 1SM -SN BR OVC008
     FM260900 36009KT 1/2SM FZFG OVC005
     FM261500 01009KT 4SM BR OVC015=

USA.gov is the U.S. government's official web portal to all federal, state and local government web resources and services.